sensor_id;sensor_type;location;lat;lon;timestamp;temperature;humidity
75430;DHT22;64009;51.488;5.462;2022-10-04T00:01:58;17.50;83.10
75430;DHT22;64009;51.488;5.462;2022-10-04T00:04:44;17.50;83.20
75430;DHT22;64009;51.488;5.462;2022-10-04T00:07:25;17.60;83.30
75430;DHT22;64009;51.488;5.462;2022-10-04T00:10:16;17.50;83.20
75430;DHT22;64009;51.488;5.462;2022-10-04T00:12:56;17.50;83.20
75430;DHT22;64009;51.488;5.462;2022-10-04T00:15:33;17.50;83.30
75430;DHT22;64009;51.488;5.462;2022-10-04T00:26:01;17.50;83.30
75430;DHT22;64009;51.488;5.462;2022-10-04T00:28:56;17.50;83.30
75430;DHT22;64009;51.488;5.462;2022-10-04T00:31:28;17.50;83.30
75430;DHT22;64009;51.488;5.462;2022-10-04T00:36:54;17.50;83.30
75430;DHT22;64009;51.488;5.462;2022-10-04T00:39:38;17.50;83.30
75430;DHT22;64009;51.488;5.462;2022-10-04T00:42:28;17.50;83.30
75430;DHT22;64009;51.488;5.462;2022-10-04T00:45:31;17.50;83.30
75430;DHT22;64009;51.488;5.462;2022-10-04T00:50:41;17.50;83.30
75430;DHT22;64009;51.488;5.462;2022-10-04T00:53:35;17.40;83.20
75430;DHT22;64009;51.488;5.462;2022-10-04T00:56:19;17.40;83.20
75430;DHT22;64009;51.488;5.462;2022-10-04T01:01:32;17.50;83.30
75430;DHT22;64009;51.488;5.462;2022-10-04T01:04:26;17.40;83.20
75430;DHT22;64009;51.488;5.462;2022-10-04T01:07:05;17.40;83.20
75430;DHT22;64009;51.488;5.462;2022-10-04T01:09:47;17.40;83.20
75430;DHT22;64009;51.488;5.462;2022-10-04T01:12:40;17.40;83.20
75430;DHT22;64009;51.488;5.462;2022-10-04T01:23:45;17.40;83.20
75430;DHT22;64009;51.488;5.462;2022-10-04T01:26:44;17.40;83.20
75430;DHT22;64009;51.488;5.462;2022-10-04T01:29:26;17.40;83.20
75430;DHT22;64009;51.488;5.462;2022-10-04T01:32:00;17.40;83.30
75430;DHT22;64009;51.488;5.462;2022-10-04T01:34:32;17.40;83.30
75430;DHT22;64009;51.488;5.462;2022-10-04T01:37:04;17.40;83.30
75430;DHT22;64009;51.488;5.462;2022-10-04T01:39:36;17.30;83.20
75430;DHT22;64009;51.488;5.462;2022-10-04T01:42:19;17.30;83.20
75430;DHT22;64009;51.488;5.462;2022-10-04T01:48:22;17.30;83.20
75430;DHT22;64009;51.488;5.462;2022-10-04T01:51:01;17.30;83.30
75430;DHT22;64009;51.488;5.462;2022-10-04T01:53:50;17.30;83.30
75430;DHT22;64009;51.488;5.462;2022-10-04T01:57:17;17.30;83.20
75430;DHT22;64009;51.488;5.462;2022-10-04T01:59:50;17.30;83.30
75430;DHT22;64009;51.488;5.462;2022-10-04T02:02:34;17.30;83.30
75430;DHT22;64009;51.488;5.462;2022-10-04T02:05:40;17.30;83.30
75430;DHT22;64009;51.488;5.462;2022-10-04T02:08:24;17.30;83.30
75430;DHT22;64009;51.488;5.462;2022-10-04T02:11:00;17.30;83.30
75430;DHT22;64009;51.488;5.462;2022-10-04T02:13:38;17.30;83.30
75430;DHT22;64009;51.488;5.462;2022-10-04T02:16:11;17.30;83.30
75430;DHT22;64009;51.488;5.462;2022-10-04T02:18:44;17.30;83.30
75430;DHT22;64009;51.488;5.462;2022-10-04T02:21:17;17.20;83.20
75430;DHT22;64009;51.488;5.462;2022-10-04T02:23:51;17.30;83.40
75430;DHT22;64009;51.488;5.462;2022-10-04T02:26:24;17.30;83.30
75430;DHT22;64009;51.488;5.462;2022-10-04T02:28:57;17.30;83.40
75430;DHT22;64009;51.488;5.462;2022-10-04T02:31:29;17.20;83.30
75430;DHT22;64009;51.488;5.462;2022-10-04T02:34:20;17.20;83.30
75430;DHT22;64009;51.488;5.462;2022-10-04T02:36:52;17.20;83.40
75430;DHT22;64009;51.488;5.462;2022-10-04T02:39:28;17.20;83.30
75430;DHT22;64009;51.488;5.462;2022-10-04T02:42:37;17.20;83.40
75430;DHT22;64009;51.488;5.462;2022-10-04T02:45:49;17.20;83.40
75430;DHT22;64009;51.488;5.462;2022-10-04T02:48:36;17.20;83.40
75430;DHT22;64009;51.488;5.462;2022-10-04T02:51:25;17.20;83.40
75430;DHT22;64009;51.488;5.462;2022-10-04T02:54:06;17.20;83.40
75430;DHT22;64009;51.488;5.462;2022-10-04T02:56:41;17.10;83.30
75430;DHT22;64009;51.488;5.462;2022-10-04T02:59:15;17.20;83.40
75430;DHT22;64009;51.488;5.462;2022-10-04T03:01:52;17.10;83.30
75430;DHT22;64009;51.488;5.462;2022-10-04T03:04:33;17.10;83.40
75430;DHT22;64009;51.488;5.462;2022-10-04T03:07:09;17.20;83.40
75430;DHT22;64009;51.488;5.462;2022-10-04T03:09:41;17.10;83.40
75430;DHT22;64009;51.488;5.462;2022-10-04T03:12:14;17.10;83.40
75430;DHT22;64009;51.488;5.462;2022-10-04T03:14:46;17.10;83.40
75430;DHT22;64009;51.488;5.462;2022-10-04T03:17:18;17.10;83.40
75430;DHT22;64009;51.488;5.462;2022-10-04T03:19:51;17.10;83.40
75430;DHT22;64009;51.488;5.462;2022-10-04T03:22:23;17.10;83.40
75430;DHT22;64009;51.488;5.462;2022-10-04T03:24:56;17.10;83.40
75430;DHT22;64009;51.488;5.462;2022-10-04T03:27:32;17.10;83.50
75430;DHT22;64009;51.488;5.462;2022-10-04T03:30:06;17.10;83.50
75430;DHT22;64009;51.488;5.462;2022-10-04T03:32:43;17.10;83.50
75430;DHT22;64009;51.488;5.462;2022-10-04T03:35:28;17.10;83.50
75430;DHT22;64009;51.488;5.462;2022-10-04T03:38:07;17.00;83.40
75430;DHT22;64009;51.488;5.462;2022-10-04T03:40:48;17.10;83.50
75430;DHT22;64009;51.488;5.462;2022-10-04T03:43:28;17.00;83.40
75430;DHT22;64009;51.488;5.462;2022-10-04T03:46:03;17.00;83.40
75430;DHT22;64009;51.488;5.462;2022-10-04T03:48:48;17.00;83.40
75430;DHT22;64009;51.488;5.462;2022-10-04T03:51:24;17.00;83.50
75430;DHT22;64009;51.488;5.462;2022-10-04T03:53:59;17.00;83.50
75430;DHT22;64009;51.488;5.462;2022-10-04T03:56:34;17.00;83.40
75430;DHT22;64009;51.488;5.462;2022-10-04T03:59:09;17.00;83.50
75430;DHT22;64009;51.488;5.462;2022-10-04T04:02:29;17.00;83.50
75430;DHT22;64009;51.488;5.462;2022-10-04T04:05:23;17.00;83.50
75430;DHT22;64009;51.488;5.462;2022-10-04T04:08:21;17.00;83.50
75430;DHT22;64009;51.488;5.462;2022-10-04T04:11:22;17.00;83.50
75430;DHT22;64009;51.488;5.462;2022-10-04T04:14:13;17.00;83.60
75430;DHT22;64009;51.488;5.462;2022-10-04T04:17:16;17.00;83.60
75430;DHT22;64009;51.488;5.462;2022-10-04T04:20:01;16.90;83.50
75430;DHT22;64009;51.488;5.462;2022-10-04T04:22:40;16.90;83.50
75430;DHT22;64009;51.488;5.462;2022-10-04T04:25:17;16.90;83.50
75430;DHT22;64009;51.488;5.462;2022-10-04T04:28:46;16.90;83.50
75430;DHT22;64009;51.488;5.462;2022-10-04T04:34:00;16.90;83.50
75430;DHT22;64009;51.488;5.462;2022-10-04T04:36:40;16.90;83.50
75430;DHT22;64009;51.488;5.462;2022-10-04T04:39:16;16.90;83.50
75430;DHT22;64009;51.488;5.462;2022-10-04T04:42:31;16.90;83.60
75430;DHT22;64009;51.488;5.462;2022-10-04T04:45:12;16.90;83.60
75430;DHT22;64009;51.488;5.462;2022-10-04T04:47:51;16.90;83.60
75430;DHT22;64009;51.488;5.462;2022-10-04T04:50:33;16.90;83.60
75430;DHT22;64009;51.488;5.462;2022-10-04T04:53:08;16.80;83.40
75430;DHT22;64009;51.488;5.462;2022-10-04T04:56:04;16.90;83.60
75430;DHT22;64009;51.488;5.462;2022-10-04T04:58:44;16.80;83.40
75430;DHT22;64009;51.488;5.462;2022-10-04T05:01:33;16.80;83.40
75430;DHT22;64009;51.488;5.462;2022-10-04T05:06:58;16.80;83.40
75430;DHT22;64009;51.488;5.462;2022-10-04T05:09:36;16.80;83.50
75430;DHT22;64009;51.488;5.462;2022-10-04T05:12:16;16.80;83.40
75430;DHT22;64009;51.488;5.462;2022-10-04T05:14:52;16.80;83.50
75430;DHT22;64009;51.488;5.462;2022-10-04T05:17:32;16.80;83.40
75430;DHT22;64009;51.488;5.462;2022-10-04T05:20:06;16.80;83.50
75430;DHT22;64009;51.488;5.462;2022-10-04T05:22:42;16.80;83.40
75430;DHT22;64009;51.488;5.462;2022-10-04T05:25:31;16.80;83.40
75430;DHT22;64009;51.488;5.462;2022-10-04T05:28:04;16.80;83.40
75430;DHT22;64009;51.488;5.462;2022-10-04T05:31:39;16.80;83.40
75430;DHT22;64009;51.488;5.462;2022-10-04T05:33:58;16.80;83.40
75430;DHT22;64009;51.488;5.462;2022-10-04T05:36:42;16.80;83.50
75430;DHT22;64009;51.488;5.462;2022-10-04T05:45:17;16.70;83.30
75430;DHT22;64009;51.488;5.462;2022-10-04T05:48:00;16.80;83.40
75430;DHT22;64009;51.488;5.462;2022-10-04T05:50:40;16.70;83.30
75430;DHT22;64009;51.488;5.462;2022-10-04T05:53:33;16.80;83.40
75430;DHT22;64009;51.488;5.462;2022-10-04T06:06:22;16.80;83.40
75430;DHT22;64009;51.488;5.462;2022-10-04T06:17:56;16.80;83.30
75430;DHT22;64009;51.488;5.462;2022-10-04T06:20:57;16.80;83.20
75430;DHT22;64009;51.488;5.462;2022-10-04T06:24:02;16.80;83.20
75430;DHT22;64009;51.488;5.462;2022-10-04T06:26:41;16.80;83.20
75430;DHT22;64009;51.488;5.462;2022-10-04T06:29:28;16.80;83.10
75430;DHT22;64009;51.488;5.462;2022-10-04T06:50:30;16.80;82.80
75430;DHT22;64009;51.488;5.462;2022-10-04T06:57:03;16.80;82.60
75430;DHT22;64009;51.488;5.462;2022-10-04T07:00:11;16.90;82.70
75430;DHT22;64009;51.488;5.462;2022-10-04T07:03:12;16.90;82.70
75430;DHT22;64009;51.488;5.462;2022-10-04T07:05:54;16.90;82.70
75430;DHT22;64009;51.488;5.462;2022-10-04T07:08:41;16.90;82.60
75430;DHT22;64009;51.488;5.462;2022-10-04T07:11:43;16.90;82.60
75430;DHT22;64009;51.488;5.462;2022-10-04T07:14:44;17.00;82.70
75430;DHT22;64009;51.488;5.462;2022-10-04T07:17:25;17.00;82.40
75430;DHT22;64009;51.488;5.462;2022-10-04T07:20:04;17.10;82.30
75430;DHT22;64009;51.488;5.462;2022-10-04T07:22:45;17.30;82.20
75430;DHT22;64009;51.488;5.462;2022-10-04T07:25:36;17.30;81.90
75430;DHT22;64009;51.488;5.462;2022-10-04T07:28:19;17.50;81.40
75430;DHT22;64009;51.488;5.462;2022-10-04T07:31:20;17.70;81.00
75430;DHT22;64009;51.488;5.462;2022-10-04T07:34:08;17.90;81.00
75430;DHT22;64009;51.488;5.462;2022-10-04T07:36:53;18.00;81.60
75430;DHT22;64009;51.488;5.462;2022-10-04T07:42:44;18.20;80.30
75430;DHT22;64009;51.488;5.462;2022-10-04T07:45:29;18.30;80.10
75430;DHT22;64009;51.488;5.462;2022-10-04T07:48:15;18.40;79.90
75430;DHT22;64009;51.488;5.462;2022-10-04T07:53:58;18.60;79.60
75430;DHT22;64009;51.488;5.462;2022-10-04T07:57:04;18.70;79.40
75430;DHT22;64009;51.488;5.462;2022-10-04T08:15:26;19.20;78.70
75430;DHT22;64009;51.488;5.462;2022-10-04T08:20:58;19.30;78.30
75430;DHT22;64009;51.488;5.462;2022-10-04T08:24:29;19.40;78.20
75430;DHT22;64009;51.488;5.462;2022-10-04T08:31:09;19.60;77.80
75430;DHT22;64009;51.488;5.462;2022-10-04T08:53:43;20.20;76.50
75430;DHT22;64009;51.488;5.462;2022-10-04T08:59:04;20.60;75.60
75430;DHT22;64009;51.488;5.462;2022-10-04T09:02:11;20.80;75.10
75430;DHT22;64009;51.488;5.462;2022-10-04T09:11:45;21.70;72.70
75430;DHT22;64009;51.488;5.462;2022-10-04T09:15:03;22.10;71.70
75430;DHT22;64009;51.488;5.462;2022-10-04T09:18:00;22.30;70.80
75430;DHT22;64009;51.488;5.462;2022-10-04T09:27:02;23.30;68.50
75430;DHT22;64009;51.488;5.462;2022-10-04T09:30:20;23.60;67.80
75430;DHT22;64009;51.488;5.462;2022-10-04T10:00:19;25.60;62.40
75430;DHT22;64009;51.488;5.462;2022-10-04T10:12:12;26.10;61.40
75430;DHT22;64009;51.488;5.462;2022-10-04T10:18:24;26.20;60.70
75430;DHT22;64009;51.488;5.462;2022-10-04T10:23:54;26.30;60.60
75430;DHT22;64009;51.488;5.462;2022-10-04T10:27:18;26.40;60.40
75430;DHT22;64009;51.488;5.462;2022-10-04T10:30:23;26.50;60.00
75430;DHT22;64009;51.488;5.462;2022-10-04T10:33:31;26.60;59.90
75430;DHT22;64009;51.488;5.462;2022-10-04T10:52:40;26.90;59.30
75430;DHT22;64009;51.488;5.462;2022-10-04T11:08:00;26.80;59.60
75430;DHT22;64009;51.488;5.462;2022-10-04T11:11:02;26.60;60.20
75430;DHT22;64009;51.488;5.462;2022-10-04T11:23:57;27.00;59.30
75430;DHT22;64009;51.488;5.462;2022-10-04T11:29:52;26.70;60.30
75430;DHT22;64009;51.488;5.462;2022-10-04T11:36:00;26.60;60.30
75430;DHT22;64009;51.488;5.462;2022-10-04T11:48:36;26.80;60.10
75430;DHT22;64009;51.488;5.462;2022-10-04T11:51:43;26.70;60.30
75430;DHT22;64009;51.488;5.462;2022-10-04T12:01:35;26.80;60.20
75430;DHT22;64009;51.488;5.462;2022-10-04T12:04:47;26.80;60.30
75430;DHT22;64009;51.488;5.462;2022-10-04T12:07:51;26.50;61.20
75430;DHT22;64009;51.488;5.462;2022-10-04T12:10:36;26.30;61.60
75430;DHT22;64009;51.488;5.462;2022-10-04T12:21:53;24.60;65.80
75430;DHT22;64009;51.488;5.462;2022-10-04T12:28:16;24.40;66.30
75430;DHT22;64009;51.488;5.462;2022-10-04T12:30:56;25.20;65.30
75430;DHT22;64009;51.488;5.462;2022-10-04T12:39:50;24.60;65.80
75430;DHT22;64009;51.488;5.462;2022-10-04T12:42:57;24.80;66.00
75430;DHT22;64009;51.488;5.462;2022-10-04T12:54:43;25.20;65.20
75430;DHT22;64009;51.488;5.462;2022-10-04T12:57:56;25.20;65.10
75430;DHT22;64009;51.488;5.462;2022-10-04T13:00:36;25.30;65.20
75430;DHT22;64009;51.488;5.462;2022-10-04T13:31:28;24.60;67.10
75430;DHT22;64009;51.488;5.462;2022-10-04T13:34:38;24.60;67.50
75430;DHT22;64009;51.488;5.462;2022-10-04T13:37:31;24.40;67.60
75430;DHT22;64009;51.488;5.462;2022-10-04T13:51:44;24.00;68.80
75430;DHT22;64009;51.488;5.462;2022-10-04T13:54:49;23.90;69.20
75430;DHT22;64009;51.488;5.462;2022-10-04T13:57:52;23.80;69.40
75430;DHT22;64009;51.488;5.462;2022-10-04T14:09:48;23.20;70.60
75430;DHT22;64009;51.488;5.462;2022-10-04T14:31:15;22.30;72.90
75430;DHT22;64009;51.488;5.462;2022-10-04T14:37:04;22.30;72.90
75430;DHT22;64009;51.488;5.462;2022-10-04T14:54:57;21.60;74.60
75430;DHT22;64009;51.488;5.462;2022-10-04T15:01:13;21.40;74.90
75430;DHT22;64009;51.488;5.462;2022-10-04T15:18:57;21.10;76.10
75430;DHT22;64009;51.488;5.462;2022-10-04T15:24:29;21.00;76.20
75430;DHT22;64009;51.488;5.462;2022-10-04T15:30:20;20.90;76.40
75430;DHT22;64009;51.488;5.462;2022-10-04T15:38:52;20.80;76.70
75430;DHT22;64009;51.488;5.462;2022-10-04T15:41:44;20.80;76.70
75430;DHT22;64009;51.488;5.462;2022-10-04T15:50:33;20.70;77.80
75430;DHT22;64009;51.488;5.462;2022-10-04T15:56:26;20.60;77.10
75430;DHT22;64009;51.488;5.462;2022-10-04T16:05:48;20.50;77.20
75430;DHT22;64009;51.488;5.462;2022-10-04T16:09:09;20.60;77.40
75430;DHT22;64009;51.488;5.462;2022-10-04T16:12:02;20.50;77.40
75430;DHT22;64009;51.488;5.462;2022-10-04T16:17:53;20.50;77.60
75430;DHT22;64009;51.488;5.462;2022-10-04T16:23:34;20.40;77.60
75430;DHT22;64009;51.488;5.462;2022-10-04T16:35:48;20.30;78.00
75430;DHT22;64009;51.488;5.462;2022-10-04T16:38:48;20.30;78.00
75430;DHT22;64009;51.488;5.462;2022-10-04T16:42:02;20.30;78.00
75430;DHT22;64009;51.488;5.462;2022-10-04T16:45:25;20.20;77.90
75430;DHT22;64009;51.488;5.462;2022-10-04T16:48:03;20.20;77.90
75430;DHT22;64009;51.488;5.462;2022-10-04T16:56:31;20.20;78.20
75430;DHT22;64009;51.488;5.462;2022-10-04T17:04:48;20.10;78.40
75430;DHT22;64009;51.488;5.462;2022-10-04T17:19:16;20.00;78.60
75430;DHT22;64009;51.488;5.462;2022-10-04T17:24:55;20.00;78.70
75430;DHT22;64009;51.488;5.462;2022-10-04T17:28:02;20.00;78.80
75430;DHT22;64009;51.488;5.462;2022-10-04T17:33:50;20.00;78.60
75430;DHT22;64009;51.488;5.462;2022-10-04T17:36:57;20.00;79.40
75430;DHT22;64009;51.488;5.462;2022-10-04T17:49:15;20.00;78.70
75430;DHT22;64009;51.488;5.462;2022-10-04T17:52:32;20.00;78.90
75430;DHT22;64009;51.488;5.462;2022-10-04T17:55:51;20.00;79.00
75430;DHT22;64009;51.488;5.462;2022-10-04T18:01:32;19.90;79.00
75430;DHT22;64009;51.488;5.462;2022-10-04T18:04:19;19.90;79.00
75430;DHT22;64009;51.488;5.462;2022-10-04T18:07:09;19.90;79.10
75430;DHT22;64009;51.488;5.462;2022-10-04T18:10:33;19.90;79.20
75430;DHT22;64009;51.488;5.462;2022-10-04T18:16:03;19.90;79.20
75430;DHT22;64009;51.488;5.462;2022-10-04T18:18:41;19.90;80.00
75430;DHT22;64009;51.488;5.462;2022-10-04T18:21:29;19.80;79.20
75430;DHT22;64009;51.488;5.462;2022-10-04T18:24:19;19.80;79.20
75430;DHT22;64009;51.488;5.462;2022-10-04T18:26:59;19.80;79.30
75430;DHT22;64009;51.488;5.462;2022-10-04T18:29:41;19.80;79.30
75430;DHT22;64009;51.488;5.462;2022-10-04T18:32:30;19.80;79.30
75430;DHT22;64009;51.488;5.462;2022-10-04T18:35:27;19.80;79.30
75430;DHT22;64009;51.488;5.462;2022-10-04T18:40:41;19.80;79.40
75430;DHT22;64009;51.488;5.462;2022-10-04T18:43:30;19.70;79.40
75430;DHT22;64009;51.488;5.462;2022-10-04T18:46:16;19.70;79.40
75430;DHT22;64009;51.488;5.462;2022-10-04T18:48:55;19.70;79.60
75430;DHT22;64009;51.488;5.462;2022-10-04T18:51:38;19.70;79.60
75430;DHT22;64009;51.488;5.462;2022-10-04T18:54:44;19.70;80.40
75430;DHT22;64009;51.488;5.462;2022-10-04T18:57:40;19.70;79.70
75430;DHT22;64009;51.488;5.462;2022-10-04T19:00:40;19.70;79.70
75430;DHT22;64009;51.488;5.462;2022-10-04T19:03:50;19.60;79.70
75430;DHT22;64009;51.488;5.462;2022-10-04T19:06:29;19.70;79.80
75430;DHT22;64009;51.488;5.462;2022-10-04T19:11:58;19.60;79.80
75430;DHT22;64009;51.488;5.462;2022-10-04T19:17:48;19.60;79.90
75430;DHT22;64009;51.488;5.462;2022-10-04T19:27:24;19.60;80.10
75430;DHT22;64009;51.488;5.462;2022-10-04T19:30:45;19.50;80.00
75430;DHT22;64009;51.488;5.462;2022-10-04T19:33:02;19.50;80.00
75430;DHT22;64009;51.488;5.462;2022-10-04T19:39:51;19.50;80.20
75430;DHT22;64009;51.488;5.462;2022-10-04T19:42:40;19.50;80.20
75430;DHT22;64009;51.488;5.462;2022-10-04T19:51:16;19.40;80.30
75430;DHT22;64009;51.488;5.462;2022-10-04T19:53:53;19.40;80.30
75430;DHT22;64009;51.488;5.462;2022-10-04T19:56:40;19.40;80.40
75430;DHT22;64009;51.488;5.462;2022-10-04T19:59:29;19.40;80.40
75430;DHT22;64009;51.488;5.462;2022-10-04T20:02:08;19.40;80.40
75430;DHT22;64009;51.488;5.462;2022-10-04T20:04:41;19.40;80.50
75430;DHT22;64009;51.488;5.462;2022-10-04T20:07:26;19.30;80.40
75430;DHT22;64009;51.488;5.462;2022-10-04T20:15:55;19.30;80.50
75430;DHT22;64009;51.488;5.462;2022-10-04T20:21:08;19.30;80.60
75430;DHT22;64009;51.488;5.462;2022-10-04T20:35:11;19.30;80.80
75430;DHT22;64009;51.488;5.462;2022-10-04T20:40:55;19.20;80.60
75430;DHT22;64009;51.488;5.462;2022-10-04T20:43:27;19.20;80.60
75430;DHT22;64009;51.488;5.462;2022-10-04T20:45:59;19.30;80.80
75430;DHT22;64009;51.488;5.462;2022-10-04T20:48:32;19.30;80.80
75430;DHT22;64009;51.488;5.462;2022-10-04T20:51:08;19.30;80.80
75430;DHT22;64009;51.488;5.462;2022-10-04T20:53:41;19.20;80.70
75430;DHT22;64009;51.488;5.462;2022-10-04T20:56:27;19.20;80.80
75430;DHT22;64009;51.488;5.462;2022-10-04T20:59:02;19.20;80.70
75430;DHT22;64009;51.488;5.462;2022-10-04T21:01:35;19.20;80.80
75430;DHT22;64009;51.488;5.462;2022-10-04T21:07:02;19.20;81.60
75430;DHT22;64009;51.488;5.462;2022-10-04T21:09:37;19.20;80.80
75430;DHT22;64009;51.488;5.462;2022-10-04T21:18:05;19.20;80.90
75430;DHT22;64009;51.488;5.462;2022-10-04T21:20:45;19.20;81.00
75430;DHT22;64009;51.488;5.462;2022-10-04T21:23:33;19.20;81.00
75430;DHT22;64009;51.488;5.462;2022-10-04T21:28:56;19.20;81.00
75430;DHT22;64009;51.488;5.462;2022-10-04T21:31:28;19.20;81.00
75430;DHT22;64009;51.488;5.462;2022-10-04T21:34:00;19.10;80.90
75430;DHT22;64009;51.488;5.462;2022-10-04T21:36:32;19.10;80.90
75430;DHT22;64009;51.488;5.462;2022-10-04T21:39:04;19.20;81.00
75430;DHT22;64009;51.488;5.462;2022-10-04T21:41:36;19.10;81.70
75430;DHT22;64009;51.488;5.462;2022-10-04T21:44:08;19.10;80.90
75430;DHT22;64009;51.488;5.462;2022-10-04T21:46:40;19.10;81.80
75430;DHT22;64009;51.488;5.462;2022-10-04T21:49:12;19.10;81.00
75430;DHT22;64009;51.488;5.462;2022-10-04T21:51:44;19.10;81.00
75430;DHT22;64009;51.488;5.462;2022-10-04T21:54:16;19.10;81.00
75430;DHT22;64009;51.488;5.462;2022-10-04T21:56:48;19.10;81.10
75430;DHT22;64009;51.488;5.462;2022-10-04T21:59:20;19.10;81.00
75430;DHT22;64009;51.488;5.462;2022-10-04T22:01:52;19.10;81.10
75430;DHT22;64009;51.488;5.462;2022-10-04T22:04:24;19.10;81.10
75430;DHT22;64009;51.488;5.462;2022-10-04T22:06:56;19.10;81.10
75430;DHT22;64009;51.488;5.462;2022-10-04T22:09:28;19.10;81.10
75430;DHT22;64009;51.488;5.462;2022-10-04T22:11:59;19.10;81.10
75430;DHT22;64009;51.488;5.462;2022-10-04T22:14:31;19.10;81.10
75430;DHT22;64009;51.488;5.462;2022-10-04T22:17:03;19.10;81.10
75430;DHT22;64009;51.488;5.462;2022-10-04T22:19:35;19.10;81.20
75430;DHT22;64009;51.488;5.462;2022-10-04T22:22:13;19.10;81.20
75430;DHT22;64009;51.488;5.462;2022-10-04T22:24:46;19.00;81.10
75430;DHT22;64009;51.488;5.462;2022-10-04T22:27:19;19.00;81.10
75430;DHT22;64009;51.488;5.462;2022-10-04T22:29:54;19.00;81.10
75430;DHT22;64009;51.488;5.462;2022-10-04T22:32:27;19.00;81.10
75430;DHT22;64009;51.488;5.462;2022-10-04T22:35:08;19.00;81.10
75430;DHT22;64009;51.488;5.462;2022-10-04T22:37:43;19.00;81.90
75430;DHT22;64009;51.488;5.462;2022-10-04T22:40:23;19.00;81.20
75430;DHT22;64009;51.488;5.462;2022-10-04T22:42:56;19.00;81.20
75430;DHT22;64009;51.488;5.462;2022-10-04T22:45:31;19.00;81.20
75430;DHT22;64009;51.488;5.462;2022-10-04T22:48:10;19.00;81.20
75430;DHT22;64009;51.488;5.462;2022-10-04T22:50:45;19.00;81.20
75430;DHT22;64009;51.488;5.462;2022-10-04T22:53:20;19.00;81.20
75430;DHT22;64009;51.488;5.462;2022-10-04T22:55:52;19.00;81.30
75430;DHT22;64009;51.488;5.462;2022-10-04T22:58:26;18.90;81.20
75430;DHT22;64009;51.488;5.462;2022-10-04T23:00:59;19.00;81.30
75430;DHT22;64009;51.488;5.462;2022-10-04T23:03:31;19.00;81.30
75430;DHT22;64009;51.488;5.462;2022-10-04T23:06:05;18.90;81.20
75430;DHT22;64009;51.488;5.462;2022-10-04T23:08:43;18.90;81.20
75430;DHT22;64009;51.488;5.462;2022-10-04T23:11:15;18.90;81.20
75430;DHT22;64009;51.488;5.462;2022-10-04T23:13:47;18.90;81.30
75430;DHT22;64009;51.488;5.462;2022-10-04T23:16:21;19.00;81.30
75430;DHT22;64009;51.488;5.462;2022-10-04T23:19:17;19.00;81.40
75430;DHT22;64009;51.488;5.462;2022-10-04T23:21:50;18.90;81.30
75430;DHT22;64009;51.488;5.462;2022-10-04T23:24:22;19.00;81.40
75430;DHT22;64009;51.488;5.462;2022-10-04T23:26:55;18.90;81.30
75430;DHT22;64009;51.488;5.462;2022-10-04T23:29:30;18.90;81.30
75430;DHT22;64009;51.488;5.462;2022-10-04T23:32:17;18.90;81.30
75430;DHT22;64009;51.488;5.462;2022-10-04T23:34:50;18.90;81.30
75430;DHT22;64009;51.488;5.462;2022-10-04T23:37:30;18.90;81.40
75430;DHT22;64009;51.488;5.462;2022-10-04T23:40:04;18.90;82.20
75430;DHT22;64009;51.488;5.462;2022-10-04T23:42:39;18.90;81.40
75430;DHT22;64009;51.488;5.462;2022-10-04T23:45:20;18.90;81.40
75430;DHT22;64009;51.488;5.462;2022-10-04T23:47:55;18.90;81.40
75430;DHT22;64009;51.488;5.462;2022-10-04T23:50:35;18.90;81.40
75430;DHT22;64009;51.488;5.462;2022-10-04T23:53:17;18.90;81.40
75430;DHT22;64009;51.488;5.462;2022-10-04T23:55:53;18.90;81.50
75430;DHT22;64009;51.488;5.462;2022-10-04T23:58:31;18.80;81.40
